Time;durP1;ratioP1;P1;durP2;ratioP2;P2;SDS_P1;SDS_P2;PMS_P1;PMS_P2;Temp;Humidity;BMP_temperature;BMP_pressure;BME280_temperature;BME280_humidity;BME280_pressure;Samples;Min_cycle;Max_cycle;Signal;HPM_P1;HPM_P2
2023/10/08 00:01:03;;;;;;;0.20;0.20;;;;;;;;;;5130985;28;20051;-50
2023/10/08 00:03:29;;;;;;;0.10;0.10;;;;;;;;;;5131164;28;20043;-51
2023/10/08 00:05:55;;;;;;;0.10;0.10;;;;;;;;;;5130977;27;20057;-52
2023/10/08 00:08:21;;;;;;;0.20;0.20;;;;;;;;;;5131276;28;20058;-52
2023/10/08 00:10:47;;;;;;;0.10;0.10;;;;;;;;;;5130788;28;20407;-51
2023/10/08 00:13:15;;;;;;;0.10;0.10;;;;;;;;;;5130960;28;20505;-51
2023/10/08 00:15:49;;;;;;;0.13;0.13;;;;;;;;;;5131177;28;20059;-51
2023/10/08 00:18:15;;;;;;;0.10;0.10;;;;;;;;;;5130332;28;20502;-51
2023/10/08 00:20:47;;;;;;;0.10;0.10;;;;;;;;;;5130993;28;20047;-52
2023/10/08 00:23:15;;;;;;;0.10;0.10;;;;;;;;;;5131279;28;20495;-52
2023/10/08 00:25:41;;;;;;;0.10;0.10;;;;;;;;;;5150388;27;20058;-52
2023/10/08 00:28:10;;;;;;;0.10;0.10;;;;;;;;;;5146220;27;20100;-51
2023/10/08 00:30:38;;;;;;;0.10;0.10;;;;;;;;;;5131087;28;20096;-51
2023/10/08 00:33:04;;;;;;;;;;;;;;;;;;5130925;28;20054;-51
2023/10/08 00:35:29;;;;;;;0.10;0.10;;;;;;;;;;5131025;28;20018;-51
2023/10/08 00:38:00;;;;;;;0.20;0.20;;;;;;;;;;5125921;27;20139;-51
2023/10/08 00:40:36;;;;;;;0.20;0.20;;;;;;;;;;5109684;28;20044;-51
2023/10/08 00:43:04;;;;;;;0.10;0.10;;;;;;;;;;5109558;28;20051;-52
2023/10/08 00:45:30;;;;;;;0.10;0.10;;;;;;;;;;5121473;28;20476;-52
2023/10/08 00:47:57;;;;;;;0.20;0.20;;;;;;;;;;5129672;28;20083;-51
2023/10/08 00:50:31;;;;;;;0.10;0.10;;;;;;;;;;5130749;28;20092;-52
2023/10/08 00:53:00;;;;;;;0.20;0.20;;;;;;;;;;5130607;28;20047;-51
2023/10/08 00:55:29;;;;;;;0.10;0.10;;;;;;;;;;5131024;28;20351;-52
2023/10/08 00:57:57;;;;;;;0.20;0.20;;;;;;;;;;5130262;28;20058;-51
2023/10/08 01:00:31;;;;;;;;;;;;;;;;;;5131007;28;20079;-52
2023/10/08 01:03:00;;;;;;;0.10;0.10;;;;;;;;;;5130590;28;20360;-52
2023/10/08 01:05:42;;;;;;;0.20;0.20;;;;;;;;;;5130387;28;20138;-51
2023/10/08 01:08:12;;;;;;;0.10;0.10;;;;;;;;;;5130374;28;20089;-51
2023/10/08 01:10:39;;;;;;;0.20;0.20;;;;;;;;;;5130456;28;20054;-50
2023/10/08 01:13:06;;;;;;;0.20;0.20;;;;;;;;;;5129781;28;20058;-49
2023/10/08 01:15:35;;;;;;;0.10;0.10;;;;;;;;;;5130384;28;20497;-50
2023/10/08 01:18:03;;;;;;;0.15;0.15;;;;;;;;;;5130509;27;20047;-51
2023/10/08 01:20:36;;;;;;;;;;;;;;;;;;5134445;28;20547;-51
2023/10/08 01:23:10;;;;;;;0.10;0.10;;;;;;;;;;5129070;27;19927;-52
2023/10/08 01:25:37;;;;;;;0.10;0.10;;;;;;;;;;5152145;27;20529;-52
2023/10/08 01:28:25;;;;;;;0.10;0.10;;;;;;;;;;5149000;27;20043;-52
2023/10/08 01:30:53;;;;;;;0.10;0.10;;;;;;;;;;5118395;28;20054;-51
2023/10/08 01:33:20;;;;;;;0.10;0.10;;;;;;;;;;5133467;28;20130;-51
2023/10/08 01:35:48;;;;;;;0.20;0.20;;;;;;;;;;5119994;28;20133;-51
2023/10/08 01:38:14;;;;;;;0.10;0.10;;;;;;;;;;5133212;28;20043;-51
2023/10/08 01:40:40;;;;;;;0.20;0.20;;;;;;;;;;5133592;28;20127;-51
2023/10/08 01:43:06;;;;;;;0.10;0.10;;;;;;;;;;5133666;28;20051;-50
2023/10/08 01:45:35;;;;;;;0.10;0.10;;;;;;;;;;5133813;28;20471;-50
2023/10/08 01:48:01;;;;;;;0.10;0.10;;;;;;;;;;5131581;28;20051;-51
2023/10/08 01:50:29;;;;;;;0.10;0.10;;;;;;;;;;5133615;28;20096;-52
2023/10/08 01:52:55;;;;;;;0.10;0.10;;;;;;;;;;5132987;28;20433;-51
2023/10/08 01:55:22;;;;;;;0.10;0.10;;;;;;;;;;5133383;28;20054;-51
2023/10/08 01:57:48;;;;;;;0.20;0.20;;;;;;;;;;5132270;28;20493;-52
2023/10/08 02:00:14;;;;;;;0.10;0.10;;;;;;;;;;5133274;28;20047;-51
2023/10/08 02:02:41;;;;;;;0.20;0.20;;;;;;;;;;5133459;28;20051;-52
2023/10/08 02:05:07;;;;;;;0.10;0.10;;;;;;;;;;5133333;28;20142;-50
2023/10/08 02:07:33;;;;;;;0.20;0.20;;;;;;;;;;5132838;28;20138;-51
2023/10/08 02:09:59;;;;;;;0.10;0.10;;;;;;;;;;5133128;28;20043;-52
2023/10/08 02:12:25;;;;;;;0.10;0.10;;;;;;;;;;5132722;28;20054;-51
2023/10/08 02:14:50;;;;;;;0.20;0.20;;;;;;;;;;5133186;28;20059;-50
2023/10/08 02:17:17;;;;;;;0.17;0.17;;;;;;;;;;5132868;28;20043;-50
2023/10/08 02:19:42;;;;;;;0.20;0.20;;;;;;;;;;5131775;28;20043;-51
2023/10/08 02:22:09;;;;;;;0.10;0.10;;;;;;;;;;5132810;28;20494;-51
2023/10/08 02:24:36;;;;;;;0.10;0.10;;;;;;;;;;5146549;27;20074;-51
2023/10/08 02:27:01;;;;;;;0.17;0.17;;;;;;;;;;5153826;27;20050;-52
2023/10/08 02:29:28;;;;;;;0.10;0.10;;;;;;;;;;5119126;27;20392;-52
2023/10/08 02:31:53;;;;;;;0.10;0.10;;;;;;;;;;5112295;28;20054;-52
2023/10/08 02:34:19;;;;;;;0.10;0.10;;;;;;;;;;5112238;28;20075;-51
2023/10/08 02:36:46;;;;;;;0.10;0.10;;;;;;;;;;5120482;28;20043;-51
2023/10/08 02:39:13;;;;;;;0.17;0.17;;;;;;;;;;5126379;28;20451;-51
2023/10/08 02:41:41;;;;;;;0.10;0.10;;;;;;;;;;5114504;28;20433;-51
2023/10/08 02:44:07;;;;;;;0.10;0.10;;;;;;;;;;5132202;28;20058;-52
2023/10/08 02:46:37;;;;;;;0.10;0.10;;;;;;;;;;5132814;28;20047;-51
2023/10/08 02:49:03;;;;;;;0.10;0.10;;;;;;;;;;5131637;28;20055;-51
2023/10/08 02:51:30;;;;;;;0.10;0.10;;;;;;;;;;5131616;28;20518;-51
2023/10/08 02:53:55;;;;;;;0.10;0.10;;;;;;;;;;5131718;27;20047;-52
2023/10/08 02:56:21;;;;;;;0.20;0.20;;;;;;;;;;5132459;28;20108;-51
2023/10/08 02:58:47;;;;;;;0.20;0.20;;;;;;;;;;5120507;27;20404;-51
2023/10/08 03:01:13;;;;;;;0.17;0.17;;;;;;;;;;5111440;28;20051;-51
2023/10/08 03:03:40;;;;;;;0.32;0.30;;;;;;;;;;5111818;28;20054;-51
2023/10/08 03:06:11;;;;;;;0.20;0.20;;;;;;;;;;5093599;28;20044;-50
2023/10/08 03:08:38;;;;;;;0.20;0.20;;;;;;;;;;5111387;28;20484;-52
2023/10/08 03:11:04;;;;;;;0.10;0.10;;;;;;;;;;5112056;28;20384;-52
2023/10/08 03:13:29;;;;;;;0.17;0.17;;;;;;;;;;5110277;28;20109;-50
2023/10/08 03:18:36;;;;;;;0.10;0.10;;;;;;;;;;5189558;27;20569;-51
2023/10/08 03:21:04;;;;;;;0.10;0.10;;;;;;;;;;5169208;27;20073;-51
2023/10/08 03:23:34;;;;;;;0.20;0.20;;;;;;;;;;5161193;27;20054;-50
2023/10/08 03:26:09;;;;;;;0.10;0.10;;;;;;;;;;5168753;27;20046;-51
2023/10/08 03:28:35;;;;;;;0.10;0.10;;;;;;;;;;5166641;27;20436;-51
2023/10/08 03:31:05;;;;;;;0.20;0.20;;;;;;;;;;5169176;27;20537;-51
2023/10/08 03:33:35;;;;;;;0.20;0.20;;;;;;;;;;5168482;27;20087;-51
2023/10/08 03:36:09;;;;;;;0.20;0.20;;;;;;;;;;5169127;27;20062;-51
2023/10/08 03:38:50;;;;;;;0.20;0.20;;;;;;;;;;5167978;27;20100;-51
2023/10/08 03:41:18;;;;;;;0.20;0.20;;;;;;;;;;5168715;27;20065;-51
2023/10/08 03:43:53;;;;;;;0.20;0.20;;;;;;;;;;5168431;27;20046;-52
2023/10/08 03:46:21;;;;;;;0.20;0.20;;;;;;;;;;5169001;27;20491;-51
2023/10/08 03:48:50;;;;;;;0.10;0.10;;;;;;;;;;5156815;27;20403;-51
2023/10/08 03:51:19;;;;;;;0.20;0.20;;;;;;;;;;5162177;27;20050;-51
2023/10/08 03:54:16;;;;;;;0.10;0.10;;;;;;;;;;5168073;27;20078;-51
2023/10/08 03:56:31;;;;;;;0.10;0.10;;;;;;;;;;5153125;27;20058;-51
2023/10/08 03:59:00;;;;;;;0.20;0.20;;;;;;;;;;5168077;27;20098;-52
2023/10/08 04:01:30;;;;;;;0.15;0.15;;;;;;;;;;5168582;27;20049;-51
2023/10/08 04:06:38;;;;;;;0.10;0.10;;;;;;;;;;5189593;27;20425;-51
2023/10/08 04:09:16;;;;;;;0.13;0.13;;;;;;;;;;5168970;27;20047;-51
2023/10/08 04:14:24;;;;;;;0.10;0.10;;;;;;;;;;5189883;27;20652;-52
2023/10/08 04:16:51;;;;;;;0.22;0.22;;;;;;;;;;5169197;27;20069;-52
2023/10/08 04:19:18;;;;;;;0.10;0.10;;;;;;;;;;5168101;27;20118;-52
2023/10/08 04:21:43;;;;;;;0.10;0.10;;;;;;;;;;5172193;27;20038;-51
2023/10/08 04:24:10;;;;;;;0.10;0.10;;;;;;;;;;5185564;27;20398;-52
2023/10/08 04:26:36;;;;;;;0.10;0.10;;;;;;;;;;5190139;27;20049;-52
2023/10/08 04:29:02;;;;;;;0.20;0.20;;;;;;;;;;5173771;27;20505;-51
2023/10/08 04:31:37;;;;;;;0.20;0.20;;;;;;;;;;5169150;27;20134;-52
2023/10/08 04:34:15;;;;;;;0.15;0.15;;;;;;;;;;5168830;27;20057;-51
2023/10/08 04:36:54;;;;;;;0.10;0.10;;;;;;;;;;5169062;27;20054;-52
2023/10/08 04:39:21;;;;;;;0.10;0.10;;;;;;;;;;5167890;27;20053;-52
2023/10/08 04:41:48;;;;;;;0.10;0.10;;;;;;;;;;5155839;27;20104;-51
2023/10/08 04:44:15;;;;;;;0.17;0.17;;;;;;;;;;5147932;27;20170;-51
2023/10/08 04:46:52;;;;;;;0.10;0.10;;;;;;;;;;5147783;27;20513;-52
2023/10/08 04:49:27;;;;;;;0.10;0.10;;;;;;;;;;5131374;27;20062;-52
2023/10/08 04:51:56;;;;;;;0.10;0.10;;;;;;;;;;5131617;27;20138;-51
2023/10/08 04:54:24;;;;;;;0.20;0.20;;;;;;;;;;5146194;27;20058;-50
2023/10/08 04:56:49;;;;;;;0.10;0.10;;;;;;;;;;5147949;27;20043;-51
2023/10/08 04:59:21;;;;;;;0.10;0.10;;;;;;;;;;5131539;27;20062;-51
2023/10/08 05:01:47;;;;;;;0.13;0.13;;;;;;;;;;5126945;28;20051;-52
2023/10/08 05:04:55;;;;;;;0.10;0.10;;;;;;;;;;5126803;28;20047;-51
2023/10/08 05:07:03;;;;;;;0.10;0.10;;;;;;;;;;5111276;28;20101;-51
2023/10/08 05:12:34;;;;;;;0.10;0.10;;;;;;;;;;5110857;28;20096;-52
2023/10/08 05:20:30;;;;;;;0.10;0.10;;;;;;;;;;5168778;27;20133;-51
2023/10/08 05:23:05;;;;;;;0.10;0.10;;;;;;;;;;5172100;27;20056;-51
2023/10/08 05:28:24;;;;;;;0.10;0.10;;;;;;;;;;5153190;27;20104;-52
2023/10/08 05:30:55;;;;;;;0.38;0.38;;;;;;;;;;5168794;27;20046;-51
2023/10/08 05:39:00;;;;;;;0.10;0.10;;;;;;;;;;5152229;27;20054;-51
2023/10/08 05:41:28;;;;;;;0.10;0.10;;;;;;;;;;5166095;27;20095;-51
2023/10/08 05:44:13;;;;;;;0.10;0.10;;;;;;;;;;5147245;27;20051;-51
2023/10/08 05:46:40;;;;;;;0.20;0.20;;;;;;;;;;5148219;27;20052;-52
2023/10/08 05:59:52;;;;;;;0.20;0.20;;;;;;;;;;5189491;27;20149;-51
2023/10/08 06:13:09;;;;;;;0.10;0.10;;;;;;;;;;5189395;27;20141;-51
2023/10/08 06:15:48;;;;;;;0.20;0.20;;;;;;;;;;5169196;27;20046;-50
2023/10/08 06:18:14;;;;;;;0.20;0.20;;;;;;;;;;5167977;27;20473;-49
2023/10/08 06:20:43;;;;;;;0.10;0.10;;;;;;;;;;5161889;27;20125;-50
2023/10/08 06:23:08;;;;;;;;;;;;;;;;;;5180725;27;20046;-51
2023/10/08 06:25:44;;;;;;;;;;;;;;;;;;5191178;27;20289;-51
2023/10/08 06:28:10;;;;;;;;;;;;;;;;;;5157289;27;19981;-51
2023/10/08 06:30:35;;;;;;;;;;;;;;;;;;5169701;27;20371;-51
2023/10/08 06:33:03;;;;;;;;;;;;;;;;;;5170069;27;19973;-51
2023/10/08 06:35:29;;;;;;;;;;;;;;;;;;5170074;27;19919;-51
2023/10/08 06:37:54;;;;;;;;;;;;;;;;;;5169238;27;19925;-51
2023/10/08 06:40:52;;;;;;;;;;;;;;;;;;5169254;27;19919;-52
2023/10/08 06:43:36;;;;;;;;;;;;;;;;;;5137482;27;19919;-52
2023/10/08 06:45:52;;;;;;;;;;;;;;;;;;5133153;27;19971;-52
2023/10/08 06:48:18;;;;;;;;;;;;;;;;;;5148209;27;19972;-51
2023/10/08 06:50:44;;;;;;;;;;;;;;;;;;5148749;27;20010;-51
2023/10/08 06:53:13;;;;;;;;;;;;;;;;;;5148777;27;19919;-52
2023/10/08 06:55:40;;;;;;;;;;;;;;;;;;5148555;27;19931;-52
2023/10/08 06:58:05;;;;;;;;;;;;;;;;;;5147425;27;19969;-51
2023/10/08 07:00:38;;;;;;;;;;;;;;;;;;5148301;27;19923;-50
2023/10/08 07:03:04;;;;;;;;;;;;;;;;;;5148571;27;19919;-52
2023/10/08 07:05:29;;;;;;;;;;;;;;;;;;5147692;27;19925;-51
2023/10/08 07:07:55;;;;;;;;;;;;;;;;;;5147802;27;20007;-51
2023/10/08 07:10:23;;;;;;;;;;;;;;;;;;5148485;27;19959;-51
2023/10/08 07:12:48;;;;;;;;;;;;;;;;;;5147263;27;20347;-51
2023/10/08 07:15:14;;;;;;;;;;;;;;;;;;5147977;27;20489;-52
2023/10/08 07:17:40;;;;;;;;;;;;;;;;;;5147097;27;20362;-51
2023/10/08 07:20:13;;;;;;;;;;;;;;;;;;5141384;27;20385;-51
2023/10/08 07:22:39;;;;;;;;;;;;;;;;;;5147838;27;19924;-52
2023/10/08 07:25:08;;;;;;;;;;;;;;;;;;5134629;28;19929;-52
2023/10/08 07:27:37;;;;;;;;;;;;;;;;;;5134097;28;19942;-51
2023/10/08 07:30:10;;;;;;;;;;;;;;;;;;5134357;28;19972;-51
2023/10/08 07:32:38;;;;;;;;;;;;;;;;;;5134278;28;19923;-50
2023/10/08 07:35:38;;;;;;;;;;;;;;;;;;5133713;28;19980;-52
2023/10/08 07:37:50;;;;;;;;;;;;;;;;;;5118144;28;19933;-50
2023/10/08 07:40:16;;;;;;;;;;;;;;;;;;5133405;28;20336;-52
2023/10/08 07:42:41;;;;;;;;;;;;;;;;;;5133874;27;19966;-51
2023/10/08 07:45:07;;;;;;;;;;;;;;;;;;5133879;28;19930;-51
2023/10/08 07:47:32;;;;;;;;;;;;;;;;;;5132409;28;20321;-52
2023/10/08 07:49:58;;;;;;;;;;;;;;;;;;5112547;28;20010;-51
2023/10/08 07:52:24;;;;;;;;;;;;;;;;;;5112437;28;20004;-52
2023/10/08 07:54:49;;;;;;;;;;;;;;;;;;5112441;28;19920;-51
2023/10/08 07:57:20;;;;;;;;;;;;;;;;;;5116771;28;20046;-51
2023/10/08 07:59:46;;;;;;;;;;;;;;;;;;5130431;28;19965;-50
2023/10/08 08:02:12;;;;;;;;;;;;;;;;;;5133034;27;19930;-50
2023/10/08 08:04:37;;;;;;;;;;;;;;;;;;5133216;28;19923;-51
2023/10/08 08:07:04;;;;;;;;;;;;;;;;;;5133644;28;20007;-51
2023/10/08 08:09:30;;;;;;;;;;;;;;;;;;5115819;27;19942;-51
2023/10/08 08:11:57;;;;;;;;;;;;;;;;;;5112530;28;20395;-51
2023/10/08 08:14:24;;;;;;;;;;;;;;;;;;5112640;28;20306;-51
2023/10/08 08:16:50;;;;;;;;;;;;;;;;;;5112371;28;19919;-50
2023/10/08 08:19:16;;;;;;;;;;;;;;;;;;5110370;28;19923;-49
2023/10/08 08:21:45;;;;;;;;;;;;;;;;;;5137809;27;19919;-51
2023/10/08 08:24:12;;;;;;;;;;;;;;;;;;5133652;27;19959;-51
2023/10/08 08:27:00;;;;;;;;;;;;;;;;;;5132780;28;20435;-51
2023/10/08 08:29:24;;;;;;;;;;;;;;;;;;5117151;28;19919;-51
2023/10/08 08:31:53;;;;;;;;;;;;;;;;;;5132770;28;19966;-50
2023/10/08 08:34:19;;;;;;;;;;;;;;;;;;5132237;27;20052;-51
2023/10/08 08:36:48;;;;;;;;;;;;;;;;;;5132344;28;19965;-51
2023/10/08 08:39:27;;;;;;;;;;;;;;;;;;5132267;28;19955;-50
2023/10/08 08:41:53;;;;;;;;;;;;;;;;;;5132460;27;19950;-51
2023/10/08 08:44:19;;;;;;;;;;;;;;;;;;5132518;28;19926;-50
2023/10/08 08:46:44;;;;;;;;;;;;;;;;;;5132355;28;19947;-51
2023/10/08 08:49:11;;;;;;;;;;;;;;;;;;5117513;28;20019;-51
2023/10/08 08:51:37;;;;;;;;;;;;;;;;;;5111963;28;19927;-51
2023/10/08 08:54:06;;;;;;;;;;;;;;;;;;5112117;28;19959;-51
2023/10/08 08:56:31;;;;;;;;;;;;;;;;;;5112420;28;19926;-51
2023/10/08 08:58:57;;;;;;;;;;;;;;;;;;5114771;28;20002;-49
2023/10/08 09:01:22;;;;;;;;;;;;;;;;;;5131457;28;20006;-50
2023/10/08 09:03:50;;;;;;;;;;;;;;;;;;5132303;28;20268;-51
2023/10/08 09:06:15;;;;;;;;;;;;;;;;;;5132611;28;19919;-51
2023/10/08 09:08:42;;;;;;;;;;;;;;;;;;5132008;28;20014;-51
2023/10/08 09:11:08;;;;;;;;;;;;;;;;;;5132052;28;19923;-50
2023/10/08 09:13:34;;;;;;;;;;;;;;;;;;5131394;28;19926;-51
2023/10/08 09:16:00;;;;;;;;;;;;;;;;;;5132109;28;19920;-51
2023/10/08 09:18:28;;;;;;;;;;;;;;;;;;5130953;28;19919;-50
2023/10/08 09:20:55;;;;;;;;;;;;;;;;;;5140728;27;19918;-50
2023/10/08 09:23:23;;;;;;;;;;;;;;;;;;5135596;27;20279;-51
2023/10/08 09:25:49;;;;;;;;;;;;;;;;;;5152605;27;20031;-51
2023/10/08 09:28:15;;;;;;;;;;;;;;;;;;5138955;27;20373;-50
2023/10/08 09:30:40;;;;;;;;;;;;;;;;;;5111295;28;19998;-51
2023/10/08 09:33:06;;;;;;;;;;;;;;;;;;5111382;28;20473;-51
2023/10/08 09:35:32;;;;;;;;;;;;;;;;;;5110811;28;19931;-50
2023/10/08 09:37:57;;;;;;;;;;;;;;;;;;5110674;28;20258;-51
2023/10/08 09:40:23;;;;;;;;;;;;;;;;;;5110307;28;19971;-51
2023/10/08 09:42:48;;;;;;;;;;;;;;;;;;5110082;28;19927;-51
2023/10/08 09:45:14;;;;;;;;;;;;;;;;;;5110453;28;19920;-51
2023/10/08 09:47:39;;;;;;;;;;;;;;;;;;5110093;28;19959;-50
2023/10/08 09:50:07;;;;;;;;;;;;;;;;;;5127187;28;19937;-51
2023/10/08 09:52:33;;;;;;;;;;;;;;;;;;5131558;27;19920;-51
2023/10/08 09:54:58;;;;;;;;;;;;;;;;;;5131573;27;20346;-50
2023/10/08 09:57:26;;;;;;;;;;;;;;;;;;5131600;28;20002;-51
2023/10/08 09:59:52;;;;;;;;;;;;;;;;;;5126229;28;19920;-51
2023/10/08 10:02:17;;;;;;;;;;;;;;;;;;5131232;28;19978;-51
2023/10/08 10:04:43;;;;;;;;;;;;;;;;;;5131084;28;19935;-51
2023/10/08 10:07:08;;;;;;;;;;;;;;;;;;5130892;28;20375;-50
2023/10/08 10:09:36;;;;;;;;;;;;;;;;;;5131129;28;20411;-51
2023/10/08 10:12:01;;;;;;;;;;;;;;;;;;5131081;28;19930;-51
2023/10/08 10:14:27;;;;;;;;;;;;;;;;;;5130896;28;20028;-51
2023/10/08 10:16:52;;;;;;;;;;;;;;;;;;5130980;28;20034;-51
2023/10/08 10:19:18;;;;;;;;;;;;;;;;;;5125304;28;20002;-49
2023/10/08 10:21:43;;;;;;;;;;;;;;;;;;5130847;28;19920;-51
2023/10/08 10:24:09;;;;;;;;;;;;;;;;;;5130792;28;20010;-51
2023/10/08 10:26:34;;;;;;;;;;;;;;;;;;5130987;28;20291;-51
2023/10/08 10:29:00;;;;;;;;;;;;;;;;;;5130589;28;19919;-51
2023/10/08 10:31:26;;;;;;;;;;;;;;;;;;5131417;28;20060;-51
2023/10/08 10:33:52;;;;;;;;;;;;;;;;;;5130715;28;20059;-51
2023/10/08 10:36:22;;;;;;;;;;;;;;;;;;5130465;28;19961;-50
2023/10/08 10:38:49;;;;;;;;;;;;;;;;;;5130589;28;19924;-51
2023/10/08 10:41:16;;;;;;;;;;;;;;;;;;5130046;27;19923;-51
2023/10/08 10:43:52;;;;;;;;;;;;;;;;;;5130242;28;20366;-50
2023/10/08 10:46:30;;;;;;;;;;;;;;;;;;5131242;28;19970;-50
2023/10/08 10:49:05;;;;;;;;;;;;;;;;;;5130468;28;19923;-51
2023/10/08 10:51:30;;;;;;;;;;;;;;;;;;5130300;28;19926;-51
2023/10/08 10:54:00;;;;;;;;;;;;;;;;;;5129979;28;19923;-50
2023/10/08 10:56:40;;;;;;;;;;;;;;;;;;5130657;28;19919;-51
2023/10/08 10:59:15;;;;;;;;;;;;;;;;;;5132875;27;19991;-51
2023/10/08 11:01:46;;;;;;;;;;;;;;;;;;5133255;28;19959;-51
2023/10/08 11:04:15;;;;;;;;;;;;;;;;;;5134234;28;19967;-51
2023/10/08 11:06:41;;;;;;;;;;;;;;;;;;5134467;28;19969;-51
2023/10/08 11:09:13;;;;;;;;;;;;;;;;;;5132980;28;19963;-51
2023/10/08 11:11:43;;;;;;;;;;;;;;;;;;5134267;28;19934;-51
2023/10/08 11:14:15;;;;;;;;;;;;;;;;;;5132810;28;19927;-51
2023/10/08 11:16:41;;;;;;;;;;;;;;;;;;5133581;28;19924;-51
2023/10/08 11:19:07;;;;;;;;;;;;;;;;;;5130094;27;19984;-51
2023/10/08 11:21:36;;;;;;;;;;;;;;;;;;5133601;28;20030;-51
2023/10/08 11:24:08;;;;;;;;;;;;;;;;;;5133810;28;19920;-51
2023/10/08 11:26:35;;;;;;;;;;;;;;;;;;5134056;28;19926;-51
2023/10/08 11:29:00;;;;;;;;;;;;;;;;;;5133797;28;19926;-50
2023/10/08 11:31:27;;;;;;;;;;;;;;;;;;5133974;28;19920;-51
2023/10/08 11:33:54;;;;;;;;;;;;;;;;;;5133883;28;20352;-50
2023/10/08 11:36:19;;;;;;;;;;;;;;;;;;5133615;28;19927;-50
2023/10/08 11:38:50;;;;;;;;;;;;;;;;;;5133333;28;20061;-51
2023/10/08 11:41:22;;;;;;;;;;;;;;;;;;5133303;27;19923;-51
2023/10/08 11:43:51;;;;;;;;;;;;;;;;;;5133264;28;19923;-49
2023/10/08 11:46:18;;;;;;;;;;;;;;;;;;5133846;28;19923;-51
2023/10/08 11:48:46;;;;;;;;;;;;;;;;;;5132874;28;20015;-50
2023/10/08 11:51:12;;;;;;;;;;;;;;;;;;5133597;28;19945;-51
2023/10/08 11:53:37;;;;;;;;;;;;;;;;;;5133624;28;19923;-51
2023/10/08 11:56:09;;;;;;;;;;;;;;;;;;5133056;28;19970;-51
2023/10/08 11:58:37;;;;;;;;;;;;;;;;;;5132827;28;19947;-51
2023/10/08 12:01:03;;;;;;;;;;;;;;;;;;5132318;28;19959;-51
2023/10/08 12:03:29;;;;;;;;;;;;;;;;;;5133114;28;20068;-50
2023/10/08 12:05:59;;;;;;;;;;;;;;;;;;5132937;28;19961;-51
2023/10/08 12:08:27;;;;;;;;;;;;;;;;;;5133037;28;20427;-51
2023/10/08 12:10:54;;;;;;;;;;;;;;;;;;5133064;27;20331;-50
2023/10/08 12:13:23;;;;;;;;;;;;;;;;;;5132281;28;20180;-51
2023/10/08 12:15:50;;;;;;;;;;;;;;;;;;5132244;28;19974;-50
2023/10/08 12:18:19;;;;;;;;;;;;;;;;;;5129336;27;19927;-51
2023/10/08 12:20:46;;;;;;;;;;;;;;;;;;5145896;27;19926;-49
2023/10/08 12:23:18;;;;;;;;;;;;;;;;;;5131458;28;19919;-51
2023/10/08 12:25:51;;;;;;;;;;;;;;;;;;5133109;27;19954;-51
2023/10/08 12:28:18;;;;;;;;;;;;;;;;;;5125861;27;19919;-51
2023/10/08 12:30:44;;;;;;;;;;;;;;;;;;5112612;28;19947;-51
2023/10/08 12:33:12;;;;;;;;;;;;;;;;;;5112477;28;19930;-50
2023/10/08 12:35:38;;;;;;;;;;;;;;;;;;5112599;28;19927;-50
2023/10/08 12:38:05;;;;;;;;;;;;;;;;;;5111476;28;20318;-51
2023/10/08 12:40:42;;;;;;;;;;;;;;;;;;5111747;28;19958;-51
2023/10/08 12:43:07;;;;;;;;;;;;;;;;;;5111984;28;19967;-51
2023/10/08 12:45:32;;;;;;;;;;;;;;;;;;5112595;28;20277;-51
2023/10/08 12:47:59;;;;;;;;;;;;;;;;;;5111639;28;19970;-51
2023/10/08 12:53:11;;;;;;;;;;;;;;;;;;5097001;28;19923;-51
2023/10/08 12:55:39;;;;;;;;;;;;;;;;;;5112490;28;19967;-52
2023/10/08 12:58:09;;;;;;;;;;;;;;;;;;5111937;28;19927;-51
2023/10/08 13:00:37;;;;;;;;;;;;;;;;;;5111952;28;20279;-51
2023/10/08 13:03:05;;;;;;;;;;;;;;;;;;5112057;28;20394;-50
2023/10/08 13:05:30;;;;;;;;;;;;;;;;;;5112156;28;20271;-50
2023/10/08 13:07:56;;;;;;;;;;;;;;;;;;5111816;28;19924;-51
2023/10/08 13:10:22;;;;;;;;;;;;;;;;;;5112373;28;19927;-51
2023/10/08 13:12:47;;;;;;;;;;;;;;;;;;5111991;28;19976;-51
2023/10/08 13:15:12;;;;;;;;;;;;;;;;;;5111951;28;20354;-50
2023/10/08 13:17:42;;;;;;;;;;;;;;;;;;5123508;27;19958;-51
2023/10/08 13:20:11;;;;;;;;;;;;;;;;;;5151417;27;20350;-51
2023/10/08 13:22:37;;;;;;;;;;;;;;;;;;5144024;27;20295;-51
2023/10/08 13:25:04;;;;;;;;;;;;;;;;;;5131654;28;20367;-51
2023/10/08 13:27:30;;;;;;;;;;;;;;;;;;5131797;28;19969;-50
2023/10/08 13:29:55;;;;;;;;;;;;;;;;;;5131877;28;19919;-51
2023/10/08 13:32:21;;;;;;;;;;;;;;;;;;5132055;28;20014;-51
2023/10/08 13:34:46;;;;;;;;;;;;;;;;;;5131978;28;19962;-51
2023/10/08 13:37:14;;;;;;;;;;;;;;;;;;5131697;28;19930;-51
2023/10/08 13:39:40;;;;;;;;;;;;;;;;;;5131555;28;19964;-50
2023/10/08 13:42:05;;;;;;;;;;;;;;;;;;5131080;27;20284;-51
2023/10/08 13:44:31;;;;;;;;;;;;;;;;;;5131616;28;20371;-51
2023/10/08 13:46:58;;;;;;;;;;;;;;;;;;5131653;28;20010;-51
2023/10/08 13:49:23;;;;;;;;;;;;;;;;;;5131126;28;19920;-50
2023/10/08 13:51:55;;;;;;;;;;;;;;;;;;5131808;28;20334;-51
2023/10/08 13:54:21;;;;;;;;;;;;;;;;;;5131778;28;19920;-51
2023/10/08 13:56:48;;;;;;;;;;;;;;;;;;5131091;28;19945;-51
2023/10/08 13:59:13;;;;;;;;;;;;;;;;;;5130724;28;19923;-51
2023/10/08 14:01:40;;;;;;;;;;;;;;;;;;5131384;28;20014;-51
2023/10/08 14:04:06;;;;;;;;;;;;;;;;;;5131055;28;20002;-51
2023/10/08 14:06:32;;;;;;;;;;;;;;;;;;5131489;28;20359;-51
2023/10/08 14:08:57;;;;;;;;;;;;;;;;;;5131078;28;19946;-51
2023/10/08 14:11:23;;;;;;;;;;;;;;;;;;5131565;28;19959;-49
2023/10/08 14:13:49;;;;;;;;;;;;;;;;;;5131024;28;19926;-51
2023/10/08 14:16:17;;;;;;;;;;;;;;;;;;5130866;28;19919;-51
2023/10/08 14:18:43;;;;;;;;;;;;;;;;;;5130178;27;20363;-51
2023/10/08 14:21:11;;;;;;;;;;;;;;;;;;5131144;28;19927;-51
2023/10/08 14:23:40;;;;;;;;;;;;;;;;;;5131833;28;19927;-51
2023/10/08 14:26:06;;;;;;;;;;;;;;;;;;5130714;27;19929;-51
2023/10/08 14:31:17;;;;;;;;;;;;;;;;;;5116534;28;19919;-51
2023/10/08 14:33:55;;;;;;;;;;;;;;;;;;5133517;27;20325;-50
2023/10/08 14:44:37;;;;;;;;;;;;;;;;;;5119755;28;19920;-51
2023/10/08 14:47:04;;;;;;;;;;;;;;;;;;5135175;28;19976;-50
2023/10/08 14:49:29;;;;;;;;;;;;;;;;;;5134136;28;19967;-51
2023/10/08 14:51:55;;;;;;;;;;;;;;;;;;5134068;28;19948;-51
2023/10/08 14:54:20;;;;;;;;;;;;;;;;;;5134416;28;19927;-51
2023/10/08 14:56:46;;;;;;;;;;;;;;;;;;5134304;28;19926;-51
2023/10/08 14:59:11;;;;;;;;;;;;;;;;;;5133629;28;20002;-51
2023/10/08 15:01:37;;;;;;;;;;;;;;;;;;5134084;28;19919;-50
2023/10/08 15:04:04;;;;;;;;;;;;;;;;;;5134194;28;19919;-51
2023/10/08 15:06:30;;;;;;;;;;;;;;;;;;5134629;28;19919;-51
2023/10/08 15:08:55;;;;;;;;;;;;;;;;;;5133968;28;19969;-50
2023/10/08 15:11:21;;;;;;;;;;;;;;;;;;5134006;28;19953;-51
2023/10/08 15:13:49;;;;;;;;;;;;;;;;;;5133774;28;19920;-50
2023/10/08 15:16:15;;;;;;;;;;;;;;;;;;5129884;27;19984;-51
2023/10/08 15:18:42;;;;;;;;;;;;;;;;;;5132967;27;20369;-51
2023/10/08 15:21:07;;;;;;;;;;;;;;;;;;5133317;28;20352;-50
2023/10/08 15:23:33;;;;;;;;;;;;;;;;;;5134227;28;19935;-51
2023/10/08 15:25:58;;;;;;;;;;;;;;;;;;5133549;28;19972;-51
2023/10/08 15:28:24;;;;;;;;;;;;;;;;;;5133387;28;19999;-50
2023/10/08 15:30:49;;;;;;;;;;;;;;;;;;5134100;28;20008;-50
2023/10/08 15:33:16;;;;;;;;;;;;;;;;;;5134142;28;20014;-50
2023/10/08 15:35:41;;;;;;;;;;;;;;;;;;5134338;28;20002;-50
2023/10/08 15:38:07;;;;;;;;;;;;;;;;;;5133612;28;20461;-51
2023/10/08 15:40:33;;;;;;;;;;;;;;;;;;5133635;28;19963;-51
2023/10/08 15:42:58;;;;;;;;;;;;;;;;;;5133673;27;19926;-51
2023/10/08 15:45:24;;;;;;;;;;;;;;;;;;5133848;27;20006;-51
2023/10/08 15:47:49;;;;;;;;;;;;;;;;;;5133342;28;20010;-51
2023/10/08 15:50:15;;;;;;;;;;;;;;;;;;5134411;28;20440;-50
2023/10/08 15:52:40;;;;;;;;;;;;;;;;;;5133981;28;20022;-51
2023/10/08 15:55:06;;;;;;;;;;;;;;;;;;5134231;28;19931;-51
2023/10/08 15:57:31;;;;;;;;;;;;;;;;;;5133822;28;19923;-51
2023/10/08 15:59:57;;;;;;;;;;;;;;;;;;5133343;28;19923;-51
2023/10/08 16:02:22;;;;;;;;;;;;;;;;;;5133845;28;19931;-51
2023/10/08 16:04:48;;;;;;;;;;;;;;;;;;5134100;28;19977;-51
2023/10/08 16:07:13;;;;;;;;;;;;;;;;;;5133610;28;19968;-51
2023/10/08 16:09:41;;;;;;;;;;;;;;;;;;5133664;28;19923;-49
2023/10/08 16:12:06;;;;;;;;;;;;;;;;;;5133470;28;20372;-50
2023/10/08 16:14:31;;;;;;;;;;;;;;;;;;5132753;28;19962;-49
2023/10/08 16:16:57;;;;;;;;;;;;;;;;;;5141838;27;20362;-51
2023/10/08 16:19:22;;;;;;;;;;;;;;;;;;5120239;27;20347;-51
2023/10/08 16:21:48;;;;;;;;;;;;;;;;;;5121562;28;19980;-50
2023/10/08 16:24:14;;;;;;;;;;;;;;;;;;5132881;28;19919;-51
2023/10/08 16:26:41;;;;;;;;;;;;;;;;;;5133119;27;20427;-51
2023/10/08 16:29:06;;;;;;;;;;;;;;;;;;5131897;27;20371;-51
2023/10/08 16:31:33;;;;;;;;;;;;;;;;;;5132663;28;19965;-51
2023/10/08 16:33:59;;;;;;;;;;;;;;;;;;5132801;28;19919;-51
2023/10/08 16:36:24;;;;;;;;;;;;;;;;;;5133006;28;19959;-50
2023/10/08 16:38:53;;;;;;;;;;;;;;;;;;5131833;28;20018;-50
2023/10/08 16:41:18;;;;;;;;;;;;;;;;;;5132010;27;19987;-51
2023/10/08 16:43:44;;;;;;;;;;;;;;;;;;5131330;28;19974;-51
2023/10/08 16:46:09;;;;;;;;;;;;;;;;;;5131849;28;19923;-51
2023/10/08 16:48:35;;;;;;;;;;;;;;;;;;5131393;28;19919;-51
2023/10/08 16:51:01;;;;;;;;;;;;;;;;;;5132225;28;19965;-51
2023/10/08 16:53:28;;;;;;;;;;;;;;;;;;5132242;28;19926;-51
2023/10/08 16:55:53;;;;;;;;;;;;;;;;;;5130964;27;19951;-51
2023/10/08 16:58:19;;;;;;;;;;;;;;;;;;5132218;28;20279;-51
2023/10/08 17:00:45;;;;;;;;;;;;;;;;;;5132323;28;20055;-51
2023/10/08 17:03:11;;;;;;;;;;;;;;;;;;5132551;28;19929;-51